createdAt,value
2018-12-04T00:00:37.228Z,12.58
2018-12-04T00:01:37.247Z,12.5
2018-12-04T00:02:37.016Z,12.55
2018-12-04T00:03:37.310Z,12.54
2018-12-04T00:04:37.311Z,12.53
2018-12-04T00:05:37.589Z,12.54
2018-12-04T00:06:37.396Z,12.53
2018-12-04T00:07:37.124Z,12.5
2018-12-04T00:08:37.135Z,12.54
2018-12-04T00:09:37.423Z,12.5
2018-12-04T00:10:37.446Z,12.54
2018-12-04T00:11:37.457Z,12.49
2018-12-04T00:12:37.489Z,12.55
2018-12-04T00:13:37.511Z,12.49
2018-12-04T00:14:37.567Z,12.4
2018-12-04T00:15:37.540Z,12.53
2018-12-04T00:16:37.561Z,12.49
2018-12-04T00:17:37.336Z,12.55
2018-12-04T00:18:37.870Z,12.49
2018-12-04T00:19:37.900Z,12.4
2018-12-04T00:20:37.393Z,12.46
2018-12-04T00:21:37.919Z,12.5
2018-12-04T00:22:37.700Z,12.49
2018-12-04T00:23:37.719Z,12.46
2018-12-04T00:24:37.727Z,12.42
2018-12-04T00:25:37.761Z,12.4
2018-12-04T00:26:38.045Z,12.47
2018-12-04T00:27:37.791Z,12.42
2018-12-04T00:28:37.570Z,12.45
2018-12-04T00:29:37.832Z,12.45
2018-12-04T00:30:37.855Z,12.42
2018-12-04T00:31:37.618Z,12.42
2018-12-04T00:32:37.645Z,12.43
2018-12-04T00:33:37.656Z,12.53
2018-12-04T00:34:37.675Z,12.47
2018-12-04T00:35:38.225Z,12.47
2018-12-04T00:36:37.991Z,12.42
2018-12-04T00:37:38.007Z,12.42
2018-12-04T00:38:38.293Z,12.31
2018-12-04T00:39:38.045Z,12.45
2018-12-04T00:40:37.806Z,12.37
2018-12-04T00:41:38.102Z,12.35
2018-12-04T00:42:38.109Z,12.45
2018-12-04T00:43:37.877Z,12.4
2018-12-04T00:44:38.156Z,12.35
2018-12-04T00:45:38.176Z,12.31
2018-12-04T00:46:37.931Z,12.24
2018-12-04T00:47:38.218Z,12.29
2018-12-04T00:48:38.498Z,12.2
2018-12-04T00:49:38.001Z,12.32
2018-12-04T00:50:38.528Z,12.18
2018-12-04T00:51:38.288Z,12.18
2018-12-04T00:52:38.330Z,12.15
2018-12-04T00:53:38.089Z,12.21
2018-12-04T00:54:38.634Z,12.06
2018-12-04T00:55:38.384Z,12.12
2018-12-04T00:56:38.412Z,12.13
2018-12-04T00:57:38.433Z,12.1
2018-12-04T00:58:38.704Z,12.1
2018-12-04T00:59:38.465Z,12.1
2018-12-04T01:00:38.224Z,12.09
2018-12-04T01:01:38.509Z,12.07
2018-12-04T01:02:38.267Z,12.13
2018-12-04T01:03:38.293Z,12.17
2018-12-04T01:04:38.310Z,12.12
2018-12-04T01:05:38.852Z,12.13
2018-12-04T01:06:38.340Z,12.1
2018-12-04T01:07:38.365Z,12.09
2018-12-04T01:08:38.698Z,12.06
2018-12-04T01:09:38.404Z,12.03
2018-12-04T01:10:38.426Z,12.06
2018-12-04T01:11:38.705Z,12.06
2018-12-04T01:12:38.730Z,12.03
2018-12-04T01:13:38.764Z,12.03
2018-12-04T01:14:39.036Z,12.03
2018-12-04T01:15:38.537Z,12.02
2018-12-04T01:16:38.815Z,12.03
2018-12-04T01:17:38.592Z,11.99
2018-12-04T01:18:39.121Z,12
2018-12-04T01:19:38.889Z,12.04
2018-12-04T01:20:38.906Z,11.86
2018-12-04T01:21:38.656Z,11.91
2018-12-04T01:22:39.202Z,11.95
2018-12-04T01:23:38.973Z,11.87
2018-12-04T01:24:38.733Z,11.91
2018-12-04T01:25:39.007Z,11.95
2018-12-04T01:26:38.757Z,11.88
2018-12-04T01:27:38.786Z,11.87
2018-12-04T01:28:38.850Z,11.88
2018-12-04T01:29:39.339Z,11.84
2018-12-04T01:30:39.102Z,11.9
2018-12-04T01:31:39.388Z,11.9
2018-12-04T01:32:39.138Z,11.86
2018-12-04T01:33:39.168Z,11.81
2018-12-04T01:34:39.184Z,11.87
2018-12-04T01:35:39.467Z,11.86
2018-12-04T01:36:38.968Z,11.83
2018-12-04T01:37:39.510Z,11.84
2018-12-04T01:38:39.277Z,11.88
2018-12-04T01:39:39.284Z,11.87
2018-12-04T01:40:39.062Z,11.84
2018-12-04T01:41:39.340Z,11.81
2018-12-04T01:42:39.352Z,11.8
2018-12-04T01:43:39.371Z,11.84
2018-12-04T01:44:39.131Z,11.83
2018-12-04T01:45:39.676Z,11.75
2018-12-04T01:46:39.439Z,11.8
2018-12-04T01:47:39.445Z,11.87
2018-12-04T01:48:39.476Z,11.8
2018-12-04T01:49:39.242Z,11.81
2018-12-04T01:50:39.788Z,11.77
2018-12-04T01:51:39.536Z,11.77
2018-12-04T01:52:39.559Z,11.83
2018-12-04T01:53:39.317Z,11.78
2018-12-04T01:54:39.614Z,11.75
2018-12-04T01:55:39.878Z,11.75
2018-12-04T01:56:39.647Z,11.78
2018-12-04T01:57:39.913Z,11.78
2018-12-04T01:58:39.680Z,11.78
2018-12-04T01:59:39.985Z,11.75
2018-12-04T02:00:39.466Z,11.72
2018-12-04T02:01:39.763Z,11.73
2018-12-04T02:02:40.019Z,11.81
2018-12-04T02:03:39.779Z,11.75
2018-12-04T02:04:39.800Z,11.72
2018-12-04T02:05:39.843Z,11.77
2018-12-04T02:06:39.590Z,11.75
2018-12-04T02:07:39.605Z,11.83
2018-12-04T02:08:39.637Z,11.72
2018-12-04T02:09:39.907Z,11.72
2018-12-04T02:10:39.674Z,11.72
2018-12-04T02:11:39.967Z,11.8
2018-12-04T02:12:39.980Z,11.78
2018-12-04T02:13:39.729Z,11.73
2018-12-04T02:14:40.007Z,11.78
2018-12-04T02:15:40.029Z,11.72
2018-12-04T02:16:40.052Z,11.65
2018-12-04T02:17:40.070Z,11.75
2018-12-04T02:18:40.105Z,11.69
2018-12-04T02:19:40.383Z,11.7
2018-12-04T02:20:40.131Z,11.63
2018-12-04T02:21:39.893Z,11.62
2018-12-04T02:22:40.435Z,11.73
2018-12-04T02:23:40.214Z,11.66
2018-12-04T02:24:40.218Z,11.63
2018-12-04T02:25:39.978Z,11.66
2018-12-04T02:26:40.270Z,11.68
2018-12-04T02:27:40.548Z,11.69
2018-12-04T02:28:40.310Z,11.68
2018-12-04T02:29:40.317Z,11.65
2018-12-04T02:30:40.397Z,11.65
2018-12-04T02:31:40.102Z,11.69
2018-12-04T02:32:40.659Z,11.62
2018-12-04T02:33:40.153Z,11.68
2018-12-04T02:34:40.446Z,11.69
2018-12-04T02:35:40.185Z,11.6
2018-12-04T02:36:40.457Z,11.6
2018-12-04T02:37:40.223Z,11.68
2018-12-04T02:38:41.669Z,11.55
2018-12-04T02:39:40.788Z,11.6
2018-12-04T02:40:40.564Z,11.59
2018-12-04T02:41:40.611Z,11.62
2018-12-04T02:42:40.590Z,11.63
2018-12-04T02:43:40.384Z,11.59
2018-12-04T02:44:40.634Z,11.68
2018-12-04T02:45:40.723Z,11.6
2018-12-04T02:46:40.414Z,11.62
2018-12-04T02:47:40.706Z,11.52
2018-12-04T02:48:40.713Z,11.51
2018-12-04T02:49:40.478Z,11.57
2018-12-04T02:50:40.499Z,11.57
2018-12-04T02:51:40.514Z,11.59
2018-12-04T02:52:41.071Z,11.54
2018-12-04T02:53:40.560Z,11.52
2018-12-04T02:54:40.577Z,11.6
2018-12-04T02:55:40.853Z,11.63
2018-12-04T02:56:40.883Z,11.54
2018-12-04T02:57:40.639Z,11.57
2018-12-04T02:58:40.913Z,11.57
2018-12-04T02:59:40.705Z,11.54
2018-12-04T03:00:40.725Z,11.54
2018-12-04T03:01:41.238Z,11.62
2018-12-04T03:02:40.754Z,11.54
2018-12-04T03:03:41.293Z,11.55
2018-12-04T03:04:41.287Z,11.51
2018-12-04T03:05:40.810Z,11.55
2018-12-04T03:06:41.353Z,11.6
2018-12-04T03:07:41.096Z,11.59
2018-12-04T03:08:40.881Z,11.54
2018-12-04T03:09:41.149Z,11.51
2018-12-04T03:10:41.174Z,11.59
2018-12-04T03:11:41.182Z,11.54
2018-12-04T03:12:41.202Z,11.44
2018-12-04T03:13:41.484Z,11.48
2018-12-04T03:14:41.236Z,11.52
2018-12-04T03:15:41.045Z,11.52
2018-12-04T03:16:41.018Z,11.5
2018-12-04T03:17:41.304Z,11.5
2018-12-04T03:18:41.587Z,11.48
2018-12-04T03:19:41.615Z,11.54
2018-12-04T03:20:41.114Z,11.57
2018-12-04T03:21:41.397Z,11.55
2018-12-04T03:22:41.696Z,11.52
2018-12-04T03:23:41.178Z,11.45
2018-12-04T03:24:41.448Z,11.54
2018-12-04T03:25:41.759Z,11.55
2018-12-04T03:26:41.488Z,11.5
2018-12-04T03:27:41.527Z,11.47
2018-12-04T03:28:41.536Z,11.45
2018-12-04T03:29:41.296Z,11.47
2018-12-04T03:30:41.570Z,11.5
2018-12-04T03:31:41.611Z,11.45
2018-12-04T03:32:41.633Z,11.5
2018-12-04T03:33:41.893Z,11.44
2018-12-04T03:34:41.919Z,11.51
2018-12-04T03:35:41.663Z,11.47
2018-12-04T03:36:41.687Z,11.5
2018-12-04T03:37:41.716Z,11.5
2018-12-04T03:38:41.471Z,11.47
2018-12-04T03:39:41.755Z,11.47
2018-12-04T03:40:41.519Z,11.51
2018-12-04T03:41:41.548Z,11.44
2018-12-04T03:42:41.558Z,11.41
2018-12-04T03:43:41.840Z,11.45
2018-12-04T03:44:41.606Z,11.41
2018-12-04T03:45:42.140Z,11.43
2018-12-04T03:46:41.970Z,11.5
2018-12-04T03:47:41.914Z,11.5
2018-12-04T03:48:41.672Z,11.55
2018-12-04T03:49:41.964Z,11.5
2018-12-04T03:50:41.982Z,11.4
2018-12-04T03:51:42.276Z,11.41
2018-12-04T03:52:42.008Z,11.4
2018-12-04T03:53:42.304Z,11.5
2018-12-04T03:54:42.058Z,11.45
2018-12-04T03:55:42.094Z,11.44
2018-12-04T03:56:42.365Z,11.48
2018-12-04T03:57:42.130Z,11.51
2018-12-04T03:58:41.891Z,11.37
2018-12-04T03:59:42.179Z,11.37
2018-12-04T04:00:42.195Z,11.36
2018-12-04T04:01:41.942Z,11.37
2018-12-04T04:02:41.959Z,11.4
2018-12-04T04:03:41.996Z,11.36
2018-12-04T04:04:42.518Z,11.43
2018-12-04T04:05:42.276Z,11.41
2018-12-04T04:06:42.324Z,11.44
2018-12-04T04:07:42.585Z,11.43
2018-12-04T04:08:42.346Z,11.35
2018-12-04T04:09:42.370Z,11.36
2018-12-04T04:10:42.637Z,11.36
2018-12-04T04:11:42.170Z,11.4
2018-12-04T04:12:42.427Z,11.33
2018-12-04T04:13:42.739Z,11.36
2018-12-04T04:14:42.720Z,11.37
2018-12-04T04:15:42.228Z,11.37
2018-12-04T04:16:42.792Z,11.43
2018-12-04T04:17:42.537Z,11.35
2018-12-04T04:18:42.801Z,11.33
2018-12-04T04:19:42.567Z,11.35
2018-12-04T04:20:42.592Z,11.37
2018-12-04T04:21:42.347Z,11.33
2018-12-04T04:22:42.890Z,11.36
2018-12-04T04:23:42.905Z,11.36
2018-12-04T04:24:42.666Z,11.23
2018-12-04T04:25:42.942Z,11.37
2018-12-04T04:26:42.959Z,11.35
2018-12-04T04:27:42.724Z,11.37
2018-12-04T04:28:42.496Z,11.36
2018-12-04T04:29:43.024Z,11.33
2018-12-04T04:30:42.786Z,11.35
2018-12-04T04:31:42.810Z,11.33
2018-12-04T04:32:42.833Z,11.33
2018-12-04T04:33:42.598Z,11.32
2018-12-04T04:34:42.610Z,11.33
2018-12-04T04:35:42.648Z,11.3
2018-12-04T04:36:42.900Z,11.33
2018-12-04T04:37:42.926Z,11.32
2018-12-04T04:38:43.211Z,11.36
2018-12-04T04:39:42.710Z,11.35
2018-12-04T04:40:42.994Z,11.26
2018-12-04T04:41:43.018Z,11.33
2018-12-04T04:42:43.309Z,11.35
2018-12-04T04:43:42.795Z,11.32
2018-12-04T04:44:43.070Z,11.3
2018-12-04T04:45:42.830Z,11.37
2018-12-04T04:46:43.118Z,11.35
2018-12-04T04:47:43.135Z,11.35
2018-12-04T04:48:43.180Z,11.35
2018-12-04T04:49:43.171Z,11.35
2018-12-04T04:50:43.460Z,11.3
2018-12-04T04:51:42.966Z,11.35
2018-12-04T04:52:42.970Z,11.4
2018-12-04T04:53:43.009Z,11.32
2018-12-04T04:54:43.046Z,11.4
2018-12-04T04:55:43.555Z,11.29
2018-12-04T04:56:43.578Z,11.35
2018-12-04T04:57:43.334Z,11.32
2018-12-04T04:58:43.616Z,11.29
2018-12-04T04:59:43.131Z,11.33
2018-12-04T05:00:43.669Z,11.32
2018-12-04T05:01:43.170Z,11.23
2018-12-04T05:02:43.702Z,11.27
2018-12-04T05:03:43.468Z,11.27
2018-12-04T05:04:43.482Z,11.27
2018-12-04T05:05:43.505Z,11.23
2018-12-04T05:06:43.527Z,11.3
2018-12-04T05:07:43.809Z,11.23
2018-12-04T05:08:43.838Z,11.25
2018-12-04T05:09:43.321Z,11.22
2018-12-04T05:10:43.593Z,11.25
2018-12-04T05:11:43.624Z,11.23
2018-12-04T05:12:43.642Z,11.25
2018-12-04T05:13:43.666Z,11.25
2018-12-04T05:14:43.681Z,11.3
2018-12-04T05:15:43.702Z,11.17
2018-12-04T05:16:43.714Z,11.25
2018-12-04T05:17:43.760Z,11.22
2018-12-04T05:18:44.029Z,11.26
2018-12-04T05:19:43.532Z,11.25
2018-12-04T05:20:43.533Z,11.19
2018-12-04T05:21:43.568Z,11.19
2018-12-04T05:22:43.585Z,11.17
2018-12-04T05:23:43.595Z,11.15
2018-12-04T05:24:43.616Z,11.15
2018-12-04T05:25:43.655Z,11.11
2018-12-04T05:26:43.919Z,11.15
2018-12-04T05:27:43.681Z,11.15
2018-12-04T05:28:43.969Z,11.17
2018-12-04T05:29:43.990Z,11.12
2018-12-04T05:30:43.753Z,11.14
2018-12-04T05:31:44.301Z,11.14
2018-12-04T05:32:44.054Z,11.1
2018-12-04T05:33:44.077Z,11.15
2018-12-04T05:34:44.348Z,11.1
2018-12-04T05:35:44.373Z,11.15
2018-12-04T05:36:43.875Z,11.12
2018-12-04T05:37:44.154Z,11.12
2018-12-04T05:38:43.915Z,11.14
2018-12-04T05:39:43.920Z,11.11
2018-12-04T05:40:44.206Z,11.11
2018-12-04T05:41:44.224Z,11.11
2018-12-04T05:42:44.239Z,11.02
2018-12-04T05:43:44.539Z,11.02
2018-12-04T05:44:44.279Z,11
2018-12-04T05:45:44.319Z,11.02
2018-12-04T05:46:44.577Z,11.02
2018-12-04T05:47:44.646Z,11.04
2018-12-04T05:48:44.381Z,11.05
2018-12-04T05:49:44.385Z,11.04
2018-12-04T05:50:44.409Z,10.99
2018-12-04T05:51:44.428Z,11.02
2018-12-04T05:52:44.710Z,11.02
2018-12-04T05:53:44.461Z,11.04
2018-12-04T05:54:44.739Z,10.96
2018-12-04T05:55:44.508Z,11
2018-12-04T05:56:44.527Z,10.9
2018-12-04T05:57:44.284Z,10.89
2018-12-04T05:58:44.321Z,11
2018-12-04T05:59:44.835Z,10.97
2018-12-04T06:00:44.868Z,10.96
2018-12-04T06:01:44.622Z,10.93
2018-12-04T06:02:44.382Z,10.94
2018-12-04T06:03:45.252Z,10.9
2018-12-04T06:04:44.697Z,10.99
2018-12-04T06:05:44.697Z,10.92
2018-12-04T06:06:44.723Z,10.89
2018-12-04T06:07:44.751Z,10.9
2018-12-04T06:08:44.778Z,10.92
2018-12-04T06:09:44.527Z,10.81
2018-12-04T06:10:44.550Z,10.81
2018-12-04T06:11:44.819Z,10.84
2018-12-04T06:12:44.858Z,10.75
2018-12-04T06:13:44.873Z,10.86
2018-12-04T06:14:44.891Z,10.9
2018-12-04T06:15:44.899Z,10.82
2018-12-04T06:16:45.191Z,10.9
2018-12-04T06:17:45.214Z,10.78
2018-12-04T06:18:44.713Z,10.84
2018-12-04T06:19:44.993Z,10.86
2018-12-04T06:20:44.749Z,10.76
2018-12-04T06:21:45.031Z,10.86
2018-12-04T06:22:45.315Z,10.86
2018-12-04T06:23:45.080Z,10.78
2018-12-04T06:24:45.083Z,10.82
2018-12-04T06:25:45.117Z,10.78
2018-12-04T06:26:44.868Z,10.75
2018-12-04T06:27:45.139Z,10.79
2018-12-04T06:28:45.422Z,10.78
2018-12-04T06:29:45.181Z,10.79
2018-12-04T06:30:45.200Z,10.78
2018-12-04T06:31:45.243Z,10.81
2018-12-04T06:32:44.994Z,10.72
2018-12-04T06:33:45.515Z,10.69
2018-12-04T06:34:45.289Z,10.71
2018-12-04T06:35:45.300Z,10.78
2018-12-04T06:36:45.323Z,10.71
2018-12-04T06:37:45.345Z,10.71
2018-12-04T06:38:45.357Z,10.67
2018-12-04T06:39:45.126Z,10.74
2018-12-04T06:40:45.406Z,10.67
2018-12-04T06:41:45.420Z,10.63
2018-12-04T06:42:45.448Z,10.61
2018-12-04T06:43:45.715Z,10.6
2018-12-04T06:44:51.649Z,10.71
2018-12-04T06:45:45.241Z,10.71
2018-12-04T06:46:45.515Z,10.63
2018-12-04T06:47:45.544Z,10.63
2018-12-04T06:48:45.309Z,10.61
2018-12-04T06:49:45.851Z,10.6
2018-12-04T06:50:45.606Z,10.63
2018-12-04T06:51:45.360Z,10.63
2018-12-04T06:52:45.663Z,10.59
2018-12-04T06:53:45.673Z,10.59
2018-12-04T06:54:45.674Z,10.57
2018-12-04T06:55:45.710Z,10.63
2018-12-04T06:56:45.734Z,10.63
2018-12-04T06:57:46.002Z,10.6
2018-12-04T06:58:45.764Z,10.57
2018-12-04T06:59:45.529Z,10.6
2018-12-04T07:00:45.824Z,10.6
2018-12-04T07:01:45.823Z,10.61
2018-12-04T07:02:45.833Z,10.54
2018-12-04T07:03:46.141Z,10.61
2018-12-04T07:04:45.639Z,10.56
2018-12-04T07:05:45.903Z,10.6
2018-12-04T07:06:45.654Z,10.48
2018-12-04T07:07:45.939Z,10.63
2018-12-04T07:08:47.090Z,10.41
2018-12-04T07:09:45.731Z,10.51
2018-12-04T07:10:46.001Z,10.56
2018-12-04T07:11:45.802Z,10.51
2018-12-04T07:12:46.313Z,10.44
2018-12-04T07:13:46.052Z,10.42
2018-12-04T07:14:46.071Z,10.51
2018-12-04T07:15:45.843Z,10.54
2018-12-04T07:16:46.368Z,10.46
2018-12-04T07:17:46.145Z,10.4
2018-12-04T07:18:46.153Z,10.42
2018-12-04T07:19:46.184Z,10.42
2018-12-04T07:20:46.195Z,10.48
2018-12-04T07:21:46.211Z,10.53
2018-12-04T07:22:46.228Z,10.44
2018-12-04T07:23:46.004Z,10.4
2018-12-04T07:24:46.271Z,10.42
2018-12-04T07:25:46.036Z,10.4
2018-12-04T07:26:46.302Z,10.4
2018-12-04T07:27:46.324Z,10.44
2018-12-04T07:28:46.099Z,10.41
2018-12-04T07:29:46.369Z,10.4
2018-12-04T07:30:46.131Z,10.44
2018-12-04T07:31:46.152Z,10.4
2018-12-04T07:32:46.701Z,10.38
2018-12-04T07:33:46.726Z,10.4
2018-12-04T07:34:46.722Z,10.38
2018-12-04T07:35:46.500Z,10.34
2018-12-04T07:36:46.519Z,10.28
2018-12-04T07:37:46.330Z,10.35
2018-12-04T07:38:46.291Z,10.31
2018-12-04T07:39:46.561Z,10.26
2018-12-04T07:40:46.331Z,10.3
2018-12-04T07:41:46.361Z,10.26
2018-12-04T07:42:46.370Z,10.26
2018-12-04T07:43:46.645Z,10.25
2018-12-04T07:44:46.403Z,10.26
2018-12-04T07:45:46.432Z,10.31
2018-12-04T07:46:46.716Z,10.26
2018-12-04T07:47:46.474Z,10.26
2018-12-04T07:48:46.742Z,10.28
2018-12-04T07:49:46.768Z,10.3
2018-12-04T07:50:46.784Z,10.28
2018-12-04T07:51:47.070Z,10.31
2018-12-04T07:52:46.834Z,10.28
2018-12-04T07:53:46.835Z,10.3
2018-12-04T07:54:46.861Z,10.28
2018-12-04T07:55:46.897Z,10.3
2018-12-04T07:56:46.645Z,10.28
2018-12-04T07:57:46.933Z,10.25
2018-12-04T07:58:46.939Z,10.28
2018-12-04T07:59:46.959Z,10.26
2018-12-04T08:00:46.974Z,10.28
2018-12-04T08:01:46.997Z,10.3
2018-12-04T08:02:47.034Z,10.26
2018-12-04T08:03:47.052Z,10.3
2018-12-04T08:04:46.799Z,10.34
2018-12-04T08:05:46.822Z,10.28
2018-12-04T08:06:46.841Z,10.28
2018-12-04T08:07:47.128Z,10.34
2018-12-04T08:08:47.131Z,10.28
2018-12-04T08:09:47.154Z,10.31
2018-12-04T08:10:47.432Z,10.35
2018-12-04T08:11:47.205Z,10.35
2018-12-04T08:12:47.227Z,10.28
2018-12-04T08:13:47.502Z,10.33
2018-12-04T08:14:47.000Z,10.35
2018-12-04T08:15:47.552Z,10.35
2018-12-04T08:16:47.044Z,10.35
2018-12-04T08:17:47.654Z,10.26
2018-12-04T08:18:47.334Z,10.28
2018-12-04T08:19:47.611Z,10.35
2018-12-04T08:20:47.374Z,10.4
2018-12-04T08:21:47.400Z,10.3
2018-12-04T08:22:47.163Z,10.31
2018-12-04T08:23:47.171Z,10.28
2018-12-04T08:24:47.452Z,10.3
2018-12-04T08:25:47.467Z,10.35
2018-12-04T08:26:47.238Z,10.26
2018-12-04T08:27:47.510Z,10.28
2018-12-04T08:28:47.526Z,10.28
2018-12-04T08:29:47.564Z,10.26
2018-12-04T08:30:47.318Z,10.28
2018-12-04T08:31:47.586Z,10.23
2018-12-04T08:32:47.616Z,10.23
2018-12-04T08:33:47.372Z,10.28
2018-12-04T08:34:47.391Z,10.3
2018-12-04T08:35:47.407Z,10.25
2018-12-04T08:36:47.691Z,10.22
2018-12-04T08:37:47.712Z,10.19
2018-12-04T08:38:47.720Z,10.17
2018-12-04T08:39:47.745Z,10.3
2018-12-04T08:40:47.774Z,10.17
2018-12-04T08:41:47.779Z,10.16
2018-12-04T08:42:47.539Z,10.26
2018-12-04T08:43:47.566Z,10.26
2018-12-04T08:44:48.120Z,10.13
2018-12-04T08:45:47.871Z,10.23
2018-12-04T08:46:47.619Z,10.16
2018-12-04T08:47:47.645Z,10.19
2018-12-04T08:48:48.185Z,10.31
2018-12-04T08:49:48.195Z,10.26
2018-12-04T08:50:47.966Z,10.3
2018-12-04T08:51:48.237Z,10.3
2018-12-04T08:52:47.738Z,10.3
2018-12-04T08:53:48.022Z,10.26
2018-12-04T08:54:48.047Z,10.3
2018-12-04T08:55:48.116Z,10.26
2018-12-04T08:56:48.075Z,10.3
2018-12-04T08:57:48.095Z,10.37
2018-12-04T08:58:48.385Z,10.31
2018-12-04T08:59:48.146Z,10.31
2018-12-04T09:00:48.152Z,10.35
2018-12-04T09:01:47.927Z,10.31
2018-12-04T09:02:47.949Z,10.31
2018-12-04T09:03:48.209Z,10.35
2018-12-04T09:04:47.972Z,10.35
2018-12-04T09:05:48.007Z,10.41
2018-12-04T09:06:48.116Z,10.42
2018-12-04T09:07:48.306Z,10.34
2018-12-04T09:08:48.486Z,10.34
2018-12-04T09:09:48.352Z,10.42
2018-12-04T09:10:48.352Z,10.37
2018-12-04T09:11:48.638Z,10.37
2018-12-04T09:12:48.403Z,10.38
2018-12-04T09:13:48.413Z,10.41
2018-12-04T09:14:48.434Z,10.35
2018-12-04T09:15:48.455Z,10.44
2018-12-04T09:16:49.047Z,10.35
2018-12-04T09:17:48.488Z,10.4
2018-12-04T09:18:48.588Z,10.44
2018-12-04T09:19:48.834Z,10.42
2018-12-04T09:20:48.703Z,10.38
2018-12-04T09:21:48.742Z,10.38
2018-12-04T09:22:48.507Z,10.34
2018-12-04T09:23:48.966Z,10.41
2018-12-04T09:24:48.620Z,10.35
2018-12-04T09:25:48.852Z,10.41
2018-12-04T09:26:49.083Z,10.4
2018-12-04T09:27:49.125Z,10.41
2018-12-04T09:28:48.821Z,10.38
2018-12-04T09:29:48.788Z,10.4
2018-12-04T09:30:48.749Z,10.42
2018-12-04T09:31:49.021Z,10.4
2018-12-04T09:32:48.532Z,10.4
2018-12-04T09:33:49.159Z,10.46
2018-12-04T09:34:48.832Z,10.4
2018-12-04T09:35:49.102Z,10.4
2018-12-04T09:36:48.914Z,10.34
2018-12-04T09:37:48.887Z,10.41
2018-12-04T09:38:49.230Z,10.33
2018-12-04T09:39:48.667Z,10.42
2018-12-04T09:40:48.957Z,10.49
2018-12-04T09:41:48.708Z,10.51
2018-12-04T09:42:48.720Z,10.49
2018-12-04T09:43:49.010Z,10.51
2018-12-04T09:44:48.771Z,10.49
2018-12-04T09:45:49.039Z,10.56
2018-12-04T09:46:49.060Z,10.53
2018-12-04T09:47:49.086Z,10.56
2018-12-04T09:48:48.854Z,10.61
2018-12-04T09:49:49.118Z,10.61
2018-12-04T09:50:49.400Z,10.6
2018-12-04T09:51:49.160Z,10.56
2018-12-04T09:52:49.448Z,10.6
2018-12-04T09:53:54.416Z,10.56
2018-12-04T09:54:49.217Z,10.64
2018-12-04T09:55:49.237Z,10.6
2018-12-04T09:56:49.258Z,10.6
2018-12-04T09:57:49.028Z,10.53
2018-12-04T09:58:49.307Z,10.56
2018-12-04T09:59:49.056Z,10.54
2018-12-04T10:00:49.603Z,10.6
2018-12-04T10:01:49.362Z,10.56
2018-12-04T10:02:49.643Z,10.54
2018-12-04T10:03:49.394Z,10.56
2018-12-04T10:04:49.413Z,10.51
2018-12-04T10:05:49.438Z,10.57
2018-12-04T10:06:49.450Z,10.54
2018-12-04T10:07:49.487Z,10.61
2018-12-04T10:08:49.498Z,10.61
2018-12-04T10:09:49.251Z,10.59
2018-12-04T10:10:49.786Z,10.64
2018-12-04T10:11:49.547Z,10.63
2018-12-04T10:12:49.507Z,10.69
2018-12-04T10:13:49.590Z,10.72
2018-12-04T10:14:49.622Z,10.78
2018-12-04T10:15:49.630Z,10.79
2018-12-04T10:16:49.651Z,10.76
2018-12-04T10:17:49.672Z,10.81
2018-12-04T10:18:52.034Z,10.78
2018-12-04T10:19:49.715Z,10.81
2018-12-04T10:20:49.465Z,10.86
2018-12-04T10:21:49.756Z,10.81
2018-12-04T10:22:49.807Z,10.75
2018-12-04T10:23:49.790Z,10.94
2018-12-04T10:24:49.859Z,10.93
2018-12-04T10:25:49.573Z,10.96
2018-12-04T10:26:49.855Z,10.96
2018-12-04T10:27:49.618Z,11.05
2018-12-04T10:28:50.170Z,10.96
2018-12-04T10:29:49.660Z,10.99
2018-12-04T10:30:49.949Z,11
2018-12-04T10:31:55.894Z,10.94
2018-12-04T10:32:50.012Z,10.94
2018-12-04T10:33:49.760Z,11
2018-12-04T10:34:50.012Z,10.94
2018-12-04T10:35:50.031Z,11.02
2018-12-04T10:36:49.793Z,11.02
2018-12-04T10:37:49.802Z,11.04
2018-12-04T10:38:49.824Z,11.04
2018-12-04T10:39:49.847Z,11.02
2018-12-04T10:40:50.131Z,11.12
2018-12-04T10:41:49.884Z,11.11
2018-12-04T10:42:50.435Z,11.14
2018-12-04T10:43:50.453Z,11.14
2018-12-04T10:44:49.950Z,11.26
2018-12-04T10:45:50.227Z,11.17
2018-12-04T10:46:49.982Z,11.22
2018-12-04T10:47:50.517Z,11.29
2018-12-04T10:48:50.280Z,11.22
2018-12-04T10:49:50.051Z,11.22
2018-12-04T10:50:50.578Z,11.22
2018-12-04T10:51:50.343Z,11.26
2018-12-04T10:52:50.370Z,11.26
2018-12-04T10:53:50.380Z,11.17
2018-12-04T10:54:50.155Z,11.18
2018-12-04T10:55:50.690Z,11.19
2018-12-04T10:56:50.451Z,11.15
2018-12-04T10:57:50.210Z,11.18
2018-12-04T10:58:50.497Z,11.19
2018-12-04T10:59:50.244Z,11.12
2018-12-04T11:00:50.259Z,11.19
2018-12-04T11:01:50.545Z,11.14
2018-12-04T11:02:50.554Z,11.15
2018-12-04T11:03:50.600Z,11.15
2018-12-04T11:04:50.603Z,11.14
2018-12-04T11:05:50.359Z,11.18
2018-12-04T11:06:50.907Z,11.17
2018-12-04T11:07:50.416Z,11.08
2018-12-04T11:08:50.690Z,11.11
2018-12-04T11:09:50.447Z,11.17
2018-12-04T11:10:50.989Z,11.07
2018-12-04T11:11:50.735Z,11.11
2018-12-04T11:12:50.754Z,11.1
2018-12-04T11:13:51.035Z,11.14
2018-12-04T11:14:50.808Z,11.04
2018-12-04T11:15:51.088Z,11.02
2018-12-04T11:16:50.605Z,11.04
2018-12-04T11:17:50.871Z,11.05
2018-12-04T11:18:50.881Z,11.11
2018-12-04T11:19:50.650Z,11.02
2018-12-04T11:20:50.655Z,10.99
2018-12-04T11:21:50.675Z,10.99
2018-12-04T11:22:50.960Z,11
2018-12-04T11:23:51.230Z,11
2018-12-04T11:24:51.007Z,11.1
2018-12-04T11:25:51.283Z,10.96
2018-12-04T11:26:51.047Z,10.97
2018-12-04T11:27:50.807Z,10.97
2018-12-04T11:28:51.070Z,10.93
2018-12-04T11:29:50.837Z,10.93
2018-12-04T11:30:51.370Z,10.99
2018-12-04T11:31:51.411Z,10.93
2018-12-04T11:32:51.161Z,10.94
2018-12-04T11:33:51.183Z,10.97
2018-12-04T11:34:51.197Z,10.93
2018-12-04T11:35:50.962Z,10.93
2018-12-04T11:36:51.233Z,10.97
2018-12-04T11:37:51.002Z,10.96
2018-12-04T11:38:51.275Z,10.94
2018-12-04T11:39:51.032Z,10.96
2018-12-04T11:40:51.312Z,10.97
2018-12-04T11:41:51.331Z,10.94
2018-12-04T11:42:51.094Z,10.96
2018-12-04T11:43:51.407Z,11.04
2018-12-04T11:44:51.415Z,11.05
2018-12-04T11:45:51.669Z,11.04
2018-12-04T11:46:51.196Z,10.96
2018-12-04T11:47:51.469Z,10.99
2018-12-04T11:48:51.214Z,10.94
2018-12-04T11:49:51.515Z,11
2018-12-04T11:50:51.518Z,11.02
2018-12-04T11:51:51.535Z,10.94
2018-12-04T11:52:51.296Z,11.04
2018-12-04T11:53:51.569Z,11.02
2018-12-04T11:54:51.331Z,11.11
2018-12-04T11:55:51.657Z,11.02
2018-12-04T11:56:51.373Z,11.14
2018-12-04T11:57:51.656Z,11.11
2018-12-04T11:58:51.667Z,11.15
2018-12-04T11:59:51.713Z,11.22
2018-12-04T12:00:51.969Z,11.12
2018-12-04T12:01:51.477Z,11.18
2018-12-04T12:02:51.490Z,11.17
2018-12-04T12:03:51.517Z,11.27
2018-12-04T12:04:51.546Z,11.23
2018-12-04T12:05:51.806Z,11.27
2018-12-04T12:06:51.589Z,11.26
2018-12-04T12:07:52.104Z,11.15
2018-12-04T12:08:51.610Z,11.25
2018-12-04T12:09:51.647Z,11.19
2018-12-04T12:10:51.922Z,11.27
2018-12-04T12:11:51.956Z,11.23
2018-12-04T12:12:52.206Z,11.25
2018-12-04T12:13:51.707Z,11.19
2018-12-04T12:14:51.984Z,11.3
2018-12-04T12:15:52.273Z,11.35
2018-12-04T12:16:51.781Z,11.26
2018-12-04T12:17:52.044Z,11.29
2018-12-04T12:18:51.810Z,11.29
2018-12-04T12:19:52.401Z,11.37
2018-12-04T12:20:52.378Z,11.35
2018-12-04T12:21:52.393Z,11.36
2018-12-04T12:22:52.412Z,11.33
2018-12-04T12:23:51.922Z,11.37
2018-12-04T12:24:52.457Z,11.35
2018-12-04T12:25:51.944Z,11.41
2018-12-04T12:26:52.243Z,11.3
2018-12-04T12:27:52.247Z,11.32
2018-12-04T12:28:52.263Z,11.37
2018-12-04T12:29:52.028Z,11.37
2018-12-04T12:30:52.312Z,11.35
2018-12-04T12:31:52.597Z,11.33
2018-12-04T12:32:52.355Z,11.37
2018-12-04T12:33:52.112Z,11.35
2018-12-04T12:34:52.386Z,11.32
2018-12-04T12:35:52.674Z,11.17
2018-12-04T12:36:52.437Z,11.17
2018-12-04T12:37:52.193Z,11.23
2018-12-04T12:38:52.722Z,11.22
2018-12-04T12:39:52.753Z,11.12
2018-12-04T12:40:52.251Z,11.1
2018-12-04T12:41:52.784Z,11.14
2018-12-04T12:42:52.556Z,11.1
2018-12-04T12:43:52.825Z,11.1
2018-12-04T12:44:52.595Z,11
2018-12-04T12:45:52.618Z,11.11
2018-12-04T12:46:52.634Z,11.04
2018-12-04T12:47:52.383Z,11
2018-12-04T12:48:52.680Z,11
2018-12-04T12:49:52.431Z,11.1
2018-12-04T12:50:52.976Z,11.07
2018-12-04T12:51:52.724Z,11.1
2018-12-04T12:52:52.745Z,11.1
2018-12-04T12:53:53.033Z,11.19
2018-12-04T12:54:52.781Z,11.19
2018-12-04T12:55:52.544Z,11.19
2018-12-04T12:56:52.839Z,11.19
2018-12-04T12:57:53.704Z,11.26